Meteo Giornale » Osservazioni meteo Arabia Saudita » Arar
ore: 22:00 - Osservazioni Meteo Arar
Lat. 30° 54' N Lon. 41° 8' E Alt. 555 metri s.l.m.
31 °C
Sereno
Temp. 24 Ore
25 °C
36 °C
Ovest/Nord-Ovest
7.4 Km/h
Dew point 6 °C
Umidità 20 %
Visibilità 10 Km
Il sole sorge alle ore 05:51
Il sole tramonta alle ore 18:40
| Data e Ora | Cielo e Fenomeni | T °C | DP °C | Um. % | Pres. hPa | Vis. km | Vento km/h | |
|---|---|---|---|---|---|---|---|---|
| Oggi h: 22:00 | Sereno | 31 | 6 | 20 | 1010 | 10 | O/NO 7.4 | |
| Oggi h: 21:00 | Sereno | 32 | 6 | 19 | 1010 | 10 | N 5.5 | |
| Oggi h: 20:00 | Sereno | 33 | 7 | 19 | 1009 | 10 | N 5.5 | |
| Oggi h: 19:00 | Sereno | 35 | 7 | 17 | 1009 | 10 | N 5.5 | |
| Oggi h: 18:00 | Sereno | 35 | 7 | 17 | 1009 | 10 | N 5.5 | |
| Oggi h: 17:00 | Sereno | 36 | 7 | 16 | 1009 | 10 | NO 13 | |
| Oggi h: 16:00 | Sereno | 36 | 7 | 16 | 1009 | 10 | N 5.5 | |
| Oggi h: 15:00 | Sereno | 36 | 7 | 16 | 1010 | 10 | O 14.8 | |
| Oggi h: 14:00 | Sereno | 36 | 7 | 16 | 1010 | 10 | O 11.1 | |
| Oggi h: 13:00 | Sereno | 35 | 7 | 17 | 1011 | 10 | N 11.1 | |
| Oggi h: 12:00 | Sereno | 34 | 7 | 18 | 1011 | 10 | NO 9.3 | |
| Oggi h: 11:00 | Sereno | 31 | 8 | 23 | 1012 | 10 | S 13 | |
| Oggi h: 10:00 | Sereno | 31 | 9 | 25 | 1012 | 10 | N 18.5 | |
| Oggi h: 09:00 | Sereno | 29 | 9 | 28 | 1012 | 10 | N 14.8 | |
| Oggi h: 08:00 | Sereno | 27 | 10 | 34 | 1011 | 10 | N/NO 13 | |
| Oggi h: 07:00 | Sereno | 26 | 10 | 36 | 1010 | 10 | N/NO 9.3 | |
| Oggi h: 06:00 | Sereno | 25 | 9 | 36 | 1010 | 10 | N/NO 11.1 | |
| Oggi h: 05:00 | Sereno | 26 | 9 | 34 | 1010 | 10 | N 9.3 | |
| Oggi h: 04:00 | Sereno | 27 | 9 | 32 | 1009 | 10 | N/NO 20.3 | |
| Oggi h: 03:00 | Sereno | 28 | 9 | 30 | 1009 | 10 | N/NO 16.7 | |
| Oggi h: 02:00 | Sereno | 28 | 7 | 26 | 1009 | 10 | N/NO 11.1 | |
| Oggi h: 01:00 | Sereno | 29 | 7 | 25 | 1009 | 10 | N/NO 11.1 | |
| Oggi h: 00:00 | Sereno | 29 | 7 | 25 | 1009 | 10 | N 13 | |
| Ieri h: 23:00 | Sereno | 29 | 7 | 25 | 1008 | 10 | N 9.3 | |



